Time;durP1;ratioP1;P1;durP2;ratioP2;P2;SDS_P1;SDS_P2;PMS_P1;PMS_P2;Temp;Humidity;BMP_temperature;BMP_pressure;BME280_temperature;BME280_humidity;BME280_pressure;Samples;Min_cycle;Max_cycle;Signal;HPM_P1;HPM_P2
2021/03/19 00:00:36;;;;;;;17.02;11.95;;;;;;;;;;5035352;28;20207;-83
2021/03/19 00:03:03;;;;;;;19.15;12.43;;;;;;;;;;5035293;28;20186;-84
2021/03/19 00:05:32;;;;;;;15.35;12.35;;;;;;;;;;5034837;28;20199;-83
2021/03/19 00:08:00;;;;;;;13.93;11.05;;;;;;;;;;5034394;28;20222;-83
2021/03/19 00:10:29;;;;;;;17.75;12.43;;;;;;;;;;5034756;28;20210;-83
2021/03/19 00:12:59;;;;;;;14.25;11.20;;;;;;;;;;5034663;28;20191;-84
2021/03/19 00:15:29;;;;;;;14.38;11.75;;;;;;;;;;5034714;28;20183;-83
2021/03/19 00:17:57;;;;;;;17.52;14.27;;;;;;;;;;5034868;28;20233;-83
2021/03/19 00:20:25;;;;;;;16.05;12.15;;;;;;;;;;5034839;28;20207;-84
2021/03/19 00:22:54;;;;;;;16.55;12.00;;;;;;;;;;5034979;28;20197;-84
2021/03/19 00:25:21;;;;;;;19.90;14.13;;;;;;;;;;5034771;28;20194;-83
2021/03/19 00:27:49;;;;;;;16.55;12.68;;;;;;;;;;5033807;28;20222;-84
2021/03/19 00:30:17;;;;;;;15.07;12.07;;;;;;;;;;5034701;28;20206;-83
2021/03/19 00:32:45;;;;;;;17.25;13.75;;;;;;;;;;5035012;28;20244;-83
2021/03/19 00:35:12;;;;;;;20.02;12.75;;;;;;;;;;5034700;28;20194;-83
2021/03/19 00:37:40;;;;;;;15.27;12.30;;;;;;;;;;5034164;28;20214;-83
2021/03/19 00:40:11;;;;;;;19.33;14.43;;;;;;;;;;5034496;28;20237;-83
2021/03/19 00:42:39;;;;;;;19.60;14.35;;;;;;;;;;5034477;28;20198;-83
2021/03/19 00:45:09;;;;;;;17.55;12.32;;;;;;;;;;5034478;28;20187;-85
2021/03/19 00:47:36;;;;;;;15.32;12.57;;;;;;;;;;5034288;28;20214;-83
2021/03/19 00:50:06;;;;;;;17.17;13.25;;;;;;;;;;5034603;28;20202;-83
2021/03/19 00:52:34;;;;;;;14.23;10.93;;;;;;;;;;5034783;28;20202;-83
2021/03/19 00:55:04;;;;;;;16.17;11.98;;;;;;;;;;5034489;28;20634;-83
2021/03/19 00:57:33;;;;;;;16.63;11.68;;;;;;;;;;5034386;28;20586;-83
2021/03/19 01:00:01;;;;;;;15.52;11.95;;;;;;;;;;5034511;28;20182;-83
2021/03/19 01:02:28;;;;;;;16.95;12.02;;;;;;;;;;5034510;28;20179;-83
2021/03/19 01:04:55;;;;;;;16.35;12.50;;;;;;;;;;5034101;28;20206;-83
2021/03/19 01:07:23;;;;;;;18.77;12.88;;;;;;;;;;5033912;28;20735;-83
2021/03/19 01:09:51;;;;;;;15.25;13.50;;;;;;;;;;5034112;28;20191;-84
2021/03/19 01:12:18;;;;;;;17.10;12.18;;;;;;;;;;5034023;28;20218;-83
2021/03/19 01:14:46;;;;;;;19.08;14.35;;;;;;;;;;5034427;28;20179;-84
2021/03/19 01:17:14;;;;;;;16.55;13.02;;;;;;;;;;5033627;28;20214;-83
2021/03/19 01:19:40;;;;;;;18.70;13.88;;;;;;;;;;5033783;28;20237;-83
2021/03/19 01:22:09;;;;;;;16.67;13.02;;;;;;;;;;5034084;28;20210;-84
2021/03/19 01:24:37;;;;;;;21.42;14.07;;;;;;;;;;5033689;28;20182;-83
2021/03/19 01:27:04;;;;;;;19.00;12.60;;;;;;;;;;5033636;28;20225;-83
2021/03/19 01:29:32;;;;;;;15.93;12.73;;;;;;;;;;5033706;28;20197;-83
2021/03/19 01:32:01;;;;;;;19.50;13.65;;;;;;;;;;5033702;28;20202;-83
2021/03/19 01:34:29;;;;;;;17.55;12.85;;;;;;;;;;5033160;28;20200;-84
2021/03/19 01:36:56;;;;;;;15.93;11.82;;;;;;;;;;5033943;28;20222;-83
2021/03/19 01:39:24;;;;;;;15.18;11.77;;;;;;;;;;5032881;28;20228;-84
2021/03/19 01:41:54;;;;;;;15.07;11.85;;;;;;;;;;5033748;28;20653;-83
2021/03/19 01:44:21;;;;;;;16.15;12.25;;;;;;;;;;5033360;28;20178;-83
2021/03/19 01:47:44;;;;;;;15.85;13.18;;;;;;;;;;5033251;28;20222;-84
2021/03/19 01:51:08;;;;;;;17.38;13.02;;;;;;;;;;4977929;28;20228;-83
2021/03/19 01:54:32;;;;;;;13.13;10.95;;;;;;;;;;5033381;28;20211;-83
2021/03/19 01:57:55;;;;;;;14.82;12.15;;;;;;;;;;5033327;28;20226;-83
2021/03/19 02:01:18;;;;;;;19.38;12.15;;;;;;;;;;5032890;28;20209;-83
2021/03/19 02:04:41;;;;;;;19.23;11.55;;;;;;;;;;5033312;28;20554;-83
2021/03/19 02:08:04;;;;;;;15.13;10.82;;;;;;;;;;5033044;28;20214;-83
2021/03/19 02:11:28;;;;;;;17.23;12.50;;;;;;;;;;5032964;28;20202;-83
2021/03/19 02:14:51;;;;;;;13.75;11.45;;;;;;;;;;5033053;28;20269;-84
2021/03/19 02:18:14;;;;;;;15.23;11.65;;;;;;;;;;5033109;28;20230;-83
2021/03/19 02:21:38;;;;;;;13.68;10.30;;;;;;;;;;5032939;28;20668;-83
2021/03/19 02:25:01;;;;;;;16.20;11.55;;;;;;;;;;5033110;28;20197;-83
2021/03/19 02:28:25;;;;;;;14.75;11.68;;;;;;;;;;5032754;28;20257;-83
2021/03/19 02:31:12;;;;;;;17.60;11.18;;;;;;;;;;5032482;28;20655;-83
2021/03/19 02:33:48;;;;;;;14.88;11.95;;;;;;;;;;5032708;28;20202;-84
2021/03/19 02:36:20;;;;;;;17.25;13.45;;;;;;;;;;5033012;28;20274;-84
2021/03/19 02:38:47;;;;;;;16.00;12.57;;;;;;;;;;5032579;28;20232;-83
2021/03/19 02:41:15;;;;;;;20.08;13.05;;;;;;;;;;5032917;28;20527;-83
2021/03/19 02:43:43;;;;;;;19.65;13.07;;;;;;;;;;5032779;28;20186;-83
2021/03/19 02:46:11;;;;;;;19.38;13.30;;;;;;;;;;5032767;28;20570;-83
2021/03/19 02:48:40;;;;;;;17.10;14.32;;;;;;;;;;5032714;28;20564;-83
2021/03/19 02:51:09;;;;;;;15.80;12.35;;;;;;;;;;5034650;28;20241;-84
2021/03/19 02:53:38;;;;;;;17.25;13.38;;;;;;;;;;5036727;28;20183;-83
2021/03/19 02:56:10;;;;;;;16.40;14.63;;;;;;;;;;5036452;28;20707;-83
2021/03/19 02:58:38;;;;;;;19.80;15.10;;;;;;;;;;5036251;28;20190;-83
2021/03/19 03:01:07;;;;;;;17.13;13.68;;;;;;;;;;5036105;28;20183;-83
2021/03/19 03:03:34;;;;;;;19.85;14.77;;;;;;;;;;5036322;28;20263;-83
2021/03/19 03:06:04;;;;;;;17.55;14.40;;;;;;;;;;5036064;28;20206;-83
2021/03/19 03:08:33;;;;;;;21.75;15.63;;;;;;;;;;5036341;28;20228;-83
2021/03/19 03:11:03;;;;;;;21.42;16.50;;;;;;;;;;5036077;28;20189;-83
2021/03/19 03:13:32;;;;;;;21.92;15.95;;;;;;;;;;5035419;28;20202;-84
2021/03/19 03:16:03;;;;;;;20.38;13.82;;;;;;;;;;5035303;28;20190;-83
2021/03/19 03:18:30;;;;;;;20.55;14.93;;;;;;;;;;5035685;28;20241;-84
2021/03/19 03:21:00;;;;;;;18.58;15.10;;;;;;;;;;5036631;28;20256;-84
2021/03/19 03:23:29;;;;;;;20.75;14.98;;;;;;;;;;5038292;28;20194;-84
2021/03/19 03:25:58;;;;;;;18.85;14.35;;;;;;;;;;5038017;28;20695;-84
2021/03/19 03:28:26;;;;;;;19.13;13.82;;;;;;;;;;5037624;28;20746;-83
2021/03/19 03:31:01;;;;;;;19.98;15.27;;;;;;;;;;5037051;28;20550;-83
2021/03/19 03:33:29;;;;;;;20.92;15.85;;;;;;;;;;5037346;28;20650;-83
2021/03/19 03:35:57;;;;;;;22.65;15.35;;;;;;;;;;5036924;28;20260;-84
2021/03/19 03:38:28;;;;;;;23.70;18.73;;;;;;;;;;5037086;28;20233;-85
2021/03/19 03:40:59;;;;;;;23.55;17.65;;;;;;;;;;5037557;28;20182;-83
2021/03/19 03:43:28;;;;;;;25.35;18.13;;;;;;;;;;5037372;28;20179;-83
2021/03/19 03:45:56;;;;;;;25.55;19.35;;;;;;;;;;5036935;28;20182;-84
2021/03/19 03:48:29;;;;;;;19.23;15.88;;;;;;;;;;5036178;28;20292;-83
2021/03/19 03:50:59;;;;;;;19.70;15.27;;;;;;;;;;5036512;28;20229;-83
2021/03/19 03:53:26;;;;;;;23.30;16.77;;;;;;;;;;5036104;28;20631;-84
2021/03/19 03:55:53;;;;;;;23.90;17.40;;;;;;;;;;5036121;28;20186;-83
2021/03/19 03:58:22;;;;;;;19.77;14.93;;;;;;;;;;5035918;28;20226;-83
2021/03/19 04:00:51;;;;;;;19.60;16.10;;;;;;;;;;5035620;28;20213;-83
2021/03/19 04:03:20;;;;;;;23.42;16.08;;;;;;;;;;5034666;28;20194;-83
2021/03/19 04:05:49;;;;;;;20.40;16.05;;;;;;;;;;5035728;28;20213;-83
2021/03/19 04:08:20;;;;;;;22.27;14.82;;;;;;;;;;5035873;28;20233;-83
2021/03/19 04:10:49;;;;;;;21.00;15.02;;;;;;;;;;5035996;28;20208;-84
2021/03/19 04:13:17;;;;;;;20.05;15.45;;;;;;;;;;5035972;28;20615;-83
2021/03/19 04:15:50;;;;;;;19.65;15.38;;;;;;;;;;5036119;28;20191;-84
2021/03/19 04:18:18;;;;;;;19.55;15.55;;;;;;;;;;5035111;28;20581;-83
2021/03/19 04:20:48;;;;;;;17.60;14.73;;;;;;;;;;5035728;28;20202;-84
2021/03/19 04:23:16;;;;;;;25.10;16.92;;;;;;;;;;5035502;28;20193;-83
2021/03/19 04:25:45;;;;;;;20.20;15.27;;;;;;;;;;5035990;28;20190;-84
2021/03/19 04:28:16;;;;;;;18.50;13.73;;;;;;;;;;5035498;28;20226;-83
2021/03/19 04:30:46;;;;;;;22.00;15.57;;;;;;;;;;5035000;28;20181;-83
2021/03/19 04:33:16;;;;;;;21.98;12.73;;;;;;;;;;5034963;28;20206;-83
2021/03/19 04:35:43;;;;;;;15.00;12.65;;;;;;;;;;5036211;28;20213;-84
2021/03/19 04:38:16;;;;;;;18.23;13.30;;;;;;;;;;5035636;28;20596;-84
2021/03/19 04:40:47;;;;;;;19.08;13.13;;;;;;;;;;5035376;28;20218;-84
2021/03/19 04:43:15;;;;;;;18.05;13.15;;;;;;;;;;5035248;28;20206;-83
2021/03/19 04:45:44;;;;;;;17.80;14.48;;;;;;;;;;5035836;28;20190;-84
2021/03/19 04:48:13;;;;;;;16.98;11.55;;;;;;;;;;5035901;28;20226;-83
2021/03/19 04:50:40;;;;;;;14.35;12.18;;;;;;;;;;5035968;28;20202;-83
2021/03/19 04:53:07;;;;;;;16.65;12.70;;;;;;;;;;5035667;28;20241;-83
2021/03/19 04:55:35;;;;;;;16.88;13.77;;;;;;;;;;5035951;28;20179;-84
2021/03/19 04:58:03;;;;;;;17.15;13.40;;;;;;;;;;5034244;28;20231;-84
2021/03/19 05:00:30;;;;;;;19.90;13.40;;;;;;;;;;5033829;28;20195;-83
2021/03/19 05:02:57;;;;;;;14.57;12.15;;;;;;;;;;5034145;28;20190;-83
2021/03/19 05:05:28;;;;;;;16.85;13.00;;;;;;;;;;5034033;28;20579;-83
2021/03/19 05:07:57;;;;;;;14.98;12.10;;;;;;;;;;5033767;28;20226;-84
2021/03/19 05:10:28;;;;;;;18.08;12.90;;;;;;;;;;5033982;28;20186;-83
2021/03/19 05:13:02;;;;;;;20.13;14.35;;;;;;;;;;5033980;28;20210;-83
2021/03/19 05:15:32;;;;;;;18.60;13.35;;;;;;;;;;5033639;28;20178;-83
2021/03/19 05:17:59;;;;;;;20.13;13.40;;;;;;;;;;5033586;28;20229;-83
2021/03/19 05:20:28;;;;;;;18.42;13.48;;;;;;;;;;5033533;28;20641;-83
2021/03/19 05:22:57;;;;;;;18.02;14.20;;;;;;;;;;5033400;28;20191;-83
2021/03/19 05:25:29;;;;;;;18.98;14.00;;;;;;;;;;5033548;28;20175;-83
2021/03/19 05:27:56;;;;;;;18.58;12.80;;;;;;;;;;5033646;28;20246;-83
2021/03/19 05:30:25;;;;;;;16.17;12.20;;;;;;;;;;5033577;28;20185;-83
2021/03/19 05:32:52;;;;;;;20.73;14.07;;;;;;;;;;5033536;28;20230;-83
2021/03/19 05:35:23;;;;;;;19.02;13.10;;;;;;;;;;5033533;28;20206;-83
2021/03/19 05:37:51;;;;;;;15.82;12.93;;;;;;;;;;5033276;28;20214;-83
2021/03/19 05:40:35;;;;;;;23.23;15.57;;;;;;;;;;5033428;28;20217;-83
2021/03/19 05:43:30;;;;;;;20.95;13.90;;;;;;;;;;5033395;28;20183;-83
2021/03/19 05:46:05;;;;;;;19.83;13.23;;;;;;;;;;5033501;28;20563;-83
2021/03/19 05:48:43;;;;;;;18.38;14.27;;;;;;;;;;5033172;28;20226;-84
2021/03/19 05:51:24;;;;;;;20.92;14.52;;;;;;;;;;5033377;28;20583;-84
2021/03/19 05:53:56;;;;;;;17.48;13.52;;;;;;;;;;5033339;28;20206;-83
2021/03/19 05:56:30;;;;;;;20.88;14.70;;;;;;;;;;5032919;28;20191;-83
2021/03/19 05:58:57;;;;;;;20.77;16.02;;;;;;;;;;5033066;28;20206;-83
2021/03/19 06:01:25;;;;;;;19.35;14.10;;;;;;;;;;5032987;28;20175;-83
2021/03/19 06:03:52;;;;;;;18.27;14.73;;;;;;;;;;5033044;28;20274;-83
2021/03/19 06:06:20;;;;;;;22.23;14.65;;;;;;;;;;5032555;28;20210;-83
2021/03/19 06:08:48;;;;;;;18.95;14.88;;;;;;;;;;5032508;28;20217;-84
2021/03/19 06:11:22;;;;;;;19.98;13.32;;;;;;;;;;5033198;28;20193;-83
2021/03/19 06:14:00;;;;;;;19.98;16.08;;;;;;;;;;5033166;28;20206;-83
2021/03/19 06:16:43;;;;;;;16.55;13.30;;;;;;;;;;5032966;28;20194;-83
2021/03/19 06:19:36;;;;;;;22.42;16.65;;;;;;;;;;5032808;28;20747;-83
2021/03/19 06:22:21;;;;;;;19.42;13.57;;;;;;;;;;5033111;28;20191;-84
2021/03/19 06:24:57;;;;;;;27.90;17.45;;;;;;;;;;5032365;28;20221;-83
2021/03/19 06:27:34;;;;;;;19.38;14.77;;;;;;;;;;5032741;28;20584;-83
2021/03/19 06:30:08;;;;;;;18.65;14.10;;;;;;;;;;5032544;28;20182;-84
2021/03/19 06:32:35;;;;;;;19.55;14.82;;;;;;;;;;5032685;28;20206;-83
2021/03/19 06:35:25;;;;;;;21.17;14.65;;;;;;;;;;5032511;28;20175;-83
2021/03/19 06:37:53;;;;;;;21.17;15.60;;;;;;;;;;5032740;28;20222;-83
2021/03/19 06:40:35;;;;;;;21.20;14.77;;;;;;;;;;5031844;28;20675;-83
2021/03/19 06:43:19;;;;;;;19.10;13.88;;;;;;;;;;5031934;28;20248;-83
2021/03/19 06:45:49;;;;;;;18.38;12.60;;;;;;;;;;5032403;28;20294;-82
2021/03/19 06:48:33;;;;;;;17.92;13.60;;;;;;;;;;5032442;28;20226;-83
2021/03/19 06:51:02;;;;;;;19.10;14.15;;;;;;;;;;5032381;28;20218;-83
2021/03/19 06:53:32;;;;;;;19.33;12.90;;;;;;;;;;5031990;28;20692;-83
2021/03/19 06:56:17;;;;;;;17.10;12.85;;;;;;;;;;5032489;28;20194;-83
2021/03/19 06:58:50;;;;;;;21.00;14.10;;;;;;;;;;5032647;28;20193;-83
2021/03/19 07:01:36;;;;;;;20.30;12.52;;;;;;;;;;5032105;28;20229;-84
2021/03/19 07:05:00;;;;;;;16.58;12.60;;;;;;;;;;5031066;28;20205;-84
2021/03/19 07:07:55;;;;;;;15.70;12.68;;;;;;;;;;5028772;28;20222;-85
2021/03/19 07:10:38;;;;;;;16.92;12.77;;;;;;;;;;5021108;28;20280;-85
2021/03/19 07:13:28;;;;;;;14.07;11.35;;;;;;;;;;5026122;28;20245;-84
2021/03/19 07:16:03;;;;;;;12.45;10.65;;;;;;;;;;5034762;28;20202;-84
2021/03/19 07:18:47;;;;;;;13.95;11.50;;;;;;;;;;5033721;28;20237;-85
2021/03/19 07:21:52;;;;;;;13.43;10.27;;;;;;;;;;5034785;28;20203;-85
2021/03/19 07:24:47;;;;;;;11.90;10.68;;;;;;;;;;5034969;28;20205;-85
2021/03/19 07:27:29;;;;;;;15.77;12.40;;;;;;;;;;5034436;28;20233;-84
2021/03/19 07:30:12;;;;;;;13.15;11.55;;;;;;;;;;5035481;28;20202;-85
2021/03/19 07:33:07;;;;;;;15.23;10.95;;;;;;;;;;5036298;28;20206;-85
2021/03/19 07:35:45;;;;;;;16.58;10.80;;;;;;;;;;5036375;28;20204;-85
2021/03/19 07:39:07;;;;;;;13.88;11.10;;;;;;;;;;5038893;28;20228;-85
2021/03/19 07:41:46;;;;;;;13.93;10.00;;;;;;;;;;5015424;28;20207;-85
2021/03/19 07:44:27;;;;;;;14.13;11.52;;;;;;;;;;5039188;28;20198;-85
2021/03/19 07:47:05;;;;;;;14.02;10.43;;;;;;;;;;5039646;28;20277;-85
2021/03/19 07:50:31;;;;;;;13.18;10.75;;;;;;;;;;5039584;28;20696;-85
2021/03/19 07:53:43;;;;;;;16.83;11.80;;;;;;;;;;5010199;28;20234;-85
2021/03/19 07:56:22;;;;;;;18.27;11.10;;;;;;;;;;4974448;28;20204;-84
2021/03/19 07:58:59;;;;;;;16.08;13.20;;;;;;;;;;4974228;28;20210;-84
2021/03/19 08:01:36;;;;;;;12.23;10.93;;;;;;;;;;5011260;28;20260;-84
2021/03/19 08:04:19;;;;;;;15.63;11.93;;;;;;;;;;5026534;28;20677;-85
2021/03/19 08:06:50;;;;;;;18.48;11.80;;;;;;;;;;5034399;28;20579;-84
2021/03/19 08:09:34;;;;;;;11.90;10.45;;;;;;;;;;5034725;28;20191;-84
2021/03/19 08:12:07;;;;;;;14.10;11.13;;;;;;;;;;5035032;28;20644;-84
2021/03/19 08:14:54;;;;;;;12.82;9.98;;;;;;;;;;5034623;28;20245;-84
2021/03/19 08:17:34;;;;;;;15.15;10.90;;;;;;;;;;5034369;28;20226;-84
2021/03/19 08:20:25;;;;;;;13.52;10.65;;;;;;;;;;5034558;28;20237;-84
2021/03/19 08:23:00;;;;;;;16.10;12.57;;;;;;;;;;5031387;28;20285;-84
2021/03/19 08:25:31;;;;;;;16.40;10.77;;;;;;;;;;5034437;28;20198;-84
2021/03/19 08:28:01;;;;;;;13.45;11.18;;;;;;;;;;5034462;28;20226;-84
2021/03/19 08:30:43;;;;;;;13.60;8.50;;;;;;;;;;5034538;28;20253;-84
2021/03/19 08:33:19;;;;;;;10.98;8.52;;;;;;;;;;5034323;28;20651;-84
2021/03/19 08:35:53;;;;;;;10.32;7.32;;;;;;;;;;5034318;28;20668;-84
2021/03/19 08:38:25;;;;;;;11.35;8.02;;;;;;;;;;5034234;28;20315;-84
2021/03/19 08:40:59;;;;;;;9.18;8.13;;;;;;;;;;5034449;28;20282;-84
2021/03/19 08:43:28;;;;;;;8.38;7.10;;;;;;;;;;5034317;28;20604;-84
2021/03/19 08:46:06;;;;;;;11.80;7.80;;;;;;;;;;5034296;28;20198;-84
2021/03/19 08:48:35;;;;;;;8.60;7.78;;;;;;;;;;5037387;28;20218;-84
2021/03/19 08:51:22;;;;;;;8.02;6.75;;;;;;;;;;5036686;28;20345;-84
2021/03/19 08:54:31;;;;;;;8.52;7.63;;;;;;;;;;5041838;28;20222;-84
2021/03/19 08:57:34;;;;;;;9.43;6.50;;;;;;;;;;5038330;28;20233;-84
2021/03/19 09:00:01;;;;;;;11.85;7.22;;;;;;;;;;5036439;28;20206;-85
2021/03/19 09:02:59;;;;;;;9.73;7.47;;;;;;;;;;5034851;28;20276;-85
2021/03/19 09:05:32;;;;;;;7.78;6.28;;;;;;;;;;5034996;28;20203;-84
2021/03/19 09:08:26;;;;;;;9.00;7.20;;;;;;;;;;5039422;28;20214;-85
2021/03/19 09:11:11;;;;;;;9.98;7.75;;;;;;;;;;5037451;28;20650;-85
2021/03/19 09:13:55;;;;;;;7.35;6.45;;;;;;;;;;5038662;28;20222;-87
2021/03/19 09:16:51;;;;;;;6.78;5.85;;;;;;;;;;5003997;28;20324;-85
2021/03/19 09:19:58;;;;;;;5.80;5.30;;;;;;;;;;5034257;28;20729;-84
2021/03/19 09:23:05;;;;;;;7.38;5.78;;;;;;;;;;5034184;28;20660;-85
2021/03/19 09:25:42;;;;;;;7.05;5.43;;;;;;;;;;5022634;28;20243;-85
2021/03/19 09:28:36;;;;;;;7.55;6.00;;;;;;;;;;5034541;28;20849;-85
2021/03/19 09:31:37;;;;;;;6.43;5.45;;;;;;;;;;5025205;28;20577;-84
2021/03/19 09:34:20;;;;;;;5.72;5.10;;;;;;;;;;5026478;28;20258;-85
2021/03/19 09:37:13;;;;;;;8.63;6.05;;;;;;;;;;5033299;28;20222;-85
2021/03/19 09:40:19;;;;;;;8.20;6.05;;;;;;;;;;5033710;28;20202;-85
2021/03/19 09:42:58;;;;;;;7.18;5.40;;;;;;;;;;5020980;28;20669;-85
2021/03/19 09:45:47;;;;;;;8.20;6.57;;;;;;;;;;5034019;28;20579;-85
2021/03/19 09:48:28;;;;;;;7.55;4.78;;;;;;;;;;5026571;28;20229;-85
2021/03/19 09:51:35;;;;;;;6.05;5.20;;;;;;;;;;5032998;28;20206;-85
2021/03/19 09:54:34;;;;;;;5.78;5.03;;;;;;;;;;5032914;28;20312;-85
2021/03/19 09:57:13;;;;;;;5.43;4.47;;;;;;;;;;5033008;28;20277;-85
2021/03/19 09:59:43;;;;;;;5.60;5.10;;;;;;;;;;5032536;28;20233;-85
2021/03/19 10:02:28;;;;;;;5.03;4.57;;;;;;;;;;5032886;28;20234;-85
2021/03/19 10:05:06;;;;;;;4.50;4.10;;;;;;;;;;5032992;28;20198;-85
2021/03/19 10:07:33;;;;;;;5.03;4.50;;;;;;;;;;5032342;28;20230;-85
2021/03/19 10:10:00;;;;;;;7.78;4.60;;;;;;;;;;5032349;28;20249;-85
2021/03/19 10:12:32;;;;;;;6.43;5.32;;;;;;;;;;5032741;28;20208;-85
2021/03/19 10:15:13;;;;;;;6.00;5.18;;;;;;;;;;5032943;28;20317;-85
2021/03/19 10:17:40;;;;;;;6.88;4.55;;;;;;;;;;5032964;28;20609;-85
2021/03/19 10:20:22;;;;;;;5.20;4.70;;;;;;;;;;5031895;28;20242;-85
2021/03/19 10:22:51;;;;;;;4.97;4.38;;;;;;;;;;5036633;28;20201;-85
2021/03/19 10:25:30;;;;;;;6.15;5.40;;;;;;;;;;5035392;28;20232;-86
2021/03/19 10:28:01;;;;;;;10.10;5.38;;;;;;;;;;5034750;28;20709;-85
2021/03/19 10:30:33;;;;;;;6.50;4.72;;;;;;;;;;5035907;28;20202;-85
2021/03/19 10:33:19;;;;;;;5.97;4.97;;;;;;;;;;5038408;28;20191;-85
2021/03/19 10:35:50;;;;;;;5.40;4.55;;;;;;;;;;5037278;28;20240;-85
2021/03/19 10:38:32;;;;;;;4.68;4.25;;;;;;;;;;5037881;28;20219;-85
2021/03/19 10:41:03;;;;;;;4.97;4.22;;;;;;;;;;5036720;28;20195;-85
2021/03/19 10:43:41;;;;;;;5.22;4.20;;;;;;;;;;5034129;28;20277;-85
2021/03/19 10:46:16;;;;;;;6.72;4.70;;;;;;;;;;5036588;28;20590;-85
2021/03/19 10:48:47;;;;;;;5.30;4.78;;;;;;;;;;5035883;28;20591;-85
2021/03/19 10:51:39;;;;;;;5.35;4.57;;;;;;;;;;5034168;28;20210;-86
2021/03/19 10:54:14;;;;;;;4.85;3.45;;;;;;;;;;5033789;28;20221;-85
2021/03/19 10:56:51;;;;;;;4.57;3.75;;;;;;;;;;5034657;28;20707;-85
2021/03/19 10:59:33;;;;;;;3.30;2.97;;;;;;;;;;5038322;28;20198;-85
2021/03/19 11:02:18;;;;;;;3.20;2.92;;;;;;;;;;5039647;28;20552;-85
2021/03/19 11:05:01;;;;;;;6.97;3.70;;;;;;;;;;5041317;28;20198;-85
2021/03/19 11:07:41;;;;;;;3.20;2.80;;;;;;;;;;5038803;28;20225;-86
2021/03/19 11:10:18;;;;;;;4.05;2.97;;;;;;;;;;5038737;28;20202;-85
2021/03/19 11:12:48;;;;;;;2.92;2.70;;;;;;;;;;5042827;28;20201;-86
2021/03/19 11:15:20;;;;;;;3.92;3.28;;;;;;;;;;5043722;28;20247;-86
2021/03/19 11:17:47;;;;;;;3.05;2.03;;;;;;;;;;5044497;28;20704;-86
2021/03/19 11:20:34;;;;;;;4.35;2.67;;;;;;;;;;5044109;28;20203;-85
2021/03/19 11:23:01;;;;;;;4.35;2.58;;;;;;;;;;5042803;28;20210;-85
2021/03/19 11:25:45;;;;;;;3.65;2.13;;;;;;;;;;5042095;28;20207;-85
2021/03/19 11:28:29;;;;;;;3.05;2.30;;;;;;;;;;5044013;28;20594;-85
2021/03/19 11:31:15;;;;;;;3.85;2.80;;;;;;;;;;5044939;28;20644;-85
2021/03/19 11:34:07;;;;;;;3.05;2.78;;;;;;;;;;5042050;28;20204;-85
2021/03/19 11:36:58;;;;;;;2.60;2.40;;;;;;;;;;5036758;28;20272;-85
2021/03/19 11:39:56;;;;;;;3.00;2.20;;;;;;;;;;5038952;28;20209;-84
2021/03/19 11:42:30;;;;;;;2.15;2.00;;;;;;;;;;5039936;28;20665;-86
2021/03/19 11:44:59;;;;;;;3.38;2.60;;;;;;;;;;5039764;28;20751;-87
2021/03/19 11:47:29;;;;;;;5.18;4.07;;;;;;;;;;5036579;28;20226;-85
2021/03/19 11:50:28;;;;;;;3.95;3.58;;;;;;;;;;5036899;28;20213;-85
2021/03/19 11:52:58;;;;;;;3.72;3.40;;;;;;;;;;5037119;28;20253;-86
2021/03/19 11:55:29;;;;;;;3.33;2.97;;;;;;;;;;5036505;28;20233;-87
2021/03/19 11:57:56;;;;;;;3.20;2.90;;;;;;;;;;5037371;28;20226;-86
2021/03/19 12:00:26;;;;;;;6.25;3.08;;;;;;;;;;5039086;28;20202;-86
2021/03/19 12:03:01;;;;;;;5.63;2.65;;;;;;;;;;5039559;28;20217;-86
2021/03/19 12:05:29;;;;;;;10.10;3.38;;;;;;;;;;5043434;28;20198;-86
2021/03/19 12:07:57;;;;;;;3.10;2.90;;;;;;;;;;5042167;28;20210;-87
2021/03/19 12:10:28;;;;;;;3.53;3.22;;;;;;;;;;5042117;28;20552;-86
2021/03/19 12:12:55;;;;;;;4.00;3.60;;;;;;;;;;5042772;28;20583;-87
2021/03/19 12:15:23;;;;;;;3.55;2.38;;;;;;;;;;5040696;28;20726;-87
2021/03/19 12:17:50;;;;;;;2.55;2.35;;;;;;;;;;5041340;28;20222;-86
2021/03/19 12:20:17;;;;;;;2.17;1.98;;;;;;;;;;5040691;28;20478;-86
2021/03/19 12:22:44;;;;;;;1.90;1.70;;;;;;;;;;5040152;28;20264;-86
2021/03/19 12:25:19;;;;;;;1.92;1.52;;;;;;;;;;5040709;28;20272;-86
2021/03/19 12:27:46;;;;;;;1.58;1.48;;;;;;;;;;5040467;28;20734;-86
2021/03/19 12:30:15;;;;;;;2.17;2.08;;;;;;;;;;5043369;28;20206;-85
2021/03/19 12:32:42;;;;;;;3.10;2.65;;;;;;;;;;5039654;28;20210;-85
2021/03/19 12:35:11;;;;;;;2.88;2.30;;;;;;;;;;5040802;28;20529;-86
2021/03/19 12:37:38;;;;;;;2.85;2.60;;;;;;;;;;5040129;28;20708;-86
2021/03/19 12:40:07;;;;;;;2.17;2.03;;;;;;;;;;5039593;28;20643;-86
2021/03/19 12:42:35;;;;;;;2.42;1.90;;;;;;;;;;5035899;28;20203;-86
2021/03/19 12:45:02;;;;;;;2.42;2.20;;;;;;;;;;5035810;28;20252;-86
2021/03/19 12:47:29;;;;;;;2.22;2.08;;;;;;;;;;5035362;28;20833;-85
2021/03/19 12:49:56;;;;;;;6.57;2.55;;;;;;;;;;5035115;28;20205;-85
2021/03/19 12:52:23;;;;;;;1.90;1.67;;;;;;;;;;5034594;28;20203;-85
2021/03/19 12:54:50;;;;;;;2.30;2.03;;;;;;;;;;5034471;28;20229;-85
2021/03/19 12:57:17;;;;;;;1.88;1.77;;;;;;;;;;5034367;28;20284;-85
2021/03/19 12:59:44;;;;;;;1.80;1.52;;;;;;;;;;5035223;28;20217;-85
2021/03/19 13:02:11;;;;;;;1.73;1.60;;;;;;;;;;5035776;28;20209;-85
2021/03/19 13:04:39;;;;;;;1.65;1.55;;;;;;;;;;5036130;28;20198;-85
2021/03/19 13:07:08;;;;;;;1.73;1.55;;;;;;;;;;5035331;28;20226;-85
2021/03/19 13:09:36;;;;;;;1.67;1.58;;;;;;;;;;5036062;28;20198;-86
2021/03/19 13:12:04;;;;;;;1.67;1.58;;;;;;;;;;5035902;28;20201;-86
2021/03/19 13:14:31;;;;;;;2.25;2.00;;;;;;;;;;5035992;28;20226;-85
2021/03/19 13:17:01;;;;;;;3.00;1.77;;;;;;;;;;5035484;28;20457;-85
2021/03/19 13:19:28;;;;;;;1.95;1.70;;;;;;;;;;5035824;28;20233;-85
2021/03/19 13:21:55;;;;;;;2.38;1.45;;;;;;;;;;5034916;28;20202;-85
2021/03/19 13:24:23;;;;;;;2.00;1.80;;;;;;;;;;5034824;28;20214;-84
2021/03/19 13:26:50;;;;;;;2.33;2.05;;;;;;;;;;5034211;28;20222;-85
2021/03/19 13:29:17;;;;;;;1.67;1.58;;;;;;;;;;5034495;28;20564;-85
2021/03/19 13:31:44;;;;;;;1.60;1.50;;;;;;;;;;5036733;28;20213;-86
2021/03/19 13:34:12;;;;;;;1.30;1.20;;;;;;;;;;5035512;28;20727;-85
2021/03/19 13:36:40;;;;;;;2.15;1.67;;;;;;;;;;5036667;28;20218;-85
2021/03/19 13:39:08;;;;;;;1.70;1.60;;;;;;;;;;5037292;28;20202;-85
2021/03/19 13:41:37;;;;;;;1.63;1.52;;;;;;;;;;5036488;28;20234;-84
2021/03/19 13:44:06;;;;;;;1.63;1.52;;;;;;;;;;5036672;28;20199;-85
2021/03/19 13:46:34;;;;;;;1.55;1.45;;;;;;;;;;5036793;28;20229;-85
2021/03/19 13:49:01;;;;;;;1.63;1.35;;;;;;;;;;5037133;28;20210;-85
2021/03/19 13:51:29;;;;;;;2.90;1.73;;;;;;;;;;5035013;28;20214;-85
2021/03/19 13:53:55;;;;;;;1.10;1.10;;;;;;;;;;5034286;28;20683;-86
2021/03/19 13:56:25;;;;;;;2.42;1.60;;;;;;;;;;5034359;28;20221;-85
2021/03/19 13:58:52;;;;;;;1.65;1.55;;;;;;;;;;5034602;28;20209;-86
2021/03/19 14:01:19;;;;;;;2.67;1.60;;;;;;;;;;5034897;28;20676;-84
2021/03/19 14:03:46;;;;;;;1.73;1.63;;;;;;;;;;5035303;28;20206;-85
2021/03/19 14:06:18;;;;;;;1.60;1.50;;;;;;;;;;5035836;28;20202;-86
2021/03/19 14:08:46;;;;;;;2.10;1.83;;;;;;;;;;5034478;28;20248;-85
2021/03/19 14:11:14;;;;;;;3.30;1.85;;;;;;;;;;5034120;28;20206;-87
2021/03/19 14:13:42;;;;;;;2.38;2.15;;;;;;;;;;5034638;28;20281;-86
2021/03/19 14:16:11;;;;;;;3.70;1.65;;;;;;;;;;5033907;28;20580;-85
2021/03/19 14:18:39;;;;;;;2.28;1.30;;;;;;;;;;5033917;28;20267;-85
2021/03/19 14:21:07;;;;;;;1.83;1.50;;;;;;;;;;5033613;28;20203;-84
2021/03/19 14:23:34;;;;;;;1.65;1.55;;;;;;;;;;5034554;28;20210;-85
2021/03/19 14:26:04;;;;;;;1.55;1.45;;;;;;;;;;5033844;28;20198;-85
2021/03/19 14:28:34;;;;;;;1.33;1.33;;;;;;;;;;5034079;28;20376;-85
2021/03/19 14:31:01;;;;;;;2.28;2.17;;;;;;;;;;5034410;28;20228;-85
2021/03/19 14:33:28;;;;;;;1.40;1.30;;;;;;;;;;5034574;28;20201;-84
2021/03/19 14:35:56;;;;;;;2.40;1.40;;;;;;;;;;5034323;28;20614;-84
2021/03/19 14:38:25;;;;;;;1.52;1.42;;;;;;;;;;5035313;28;20410;-84
2021/03/19 14:40:55;;;;;;;1.50;1.40;;;;;;;;;;5034628;28;20256;-85
2021/03/19 14:43:24;;;;;;;2.03;1.65;;;;;;;;;;5040020;28;20210;-86
2021/03/19 14:45:51;;;;;;;1.45;1.38;;;;;;;;;;5033869;28;20209;-85
2021/03/19 14:48:22;;;;;;;1.33;1.23;;;;;;;;;;5037428;28;20724;-85
2021/03/19 14:50:51;;;;;;;1.67;1.58;;;;;;;;;;5037844;28;20630;-85
2021/03/19 14:53:18;;;;;;;1.65;1.55;;;;;;;;;;5039162;28;20194;-85
2021/03/19 14:55:45;;;;;;;2.65;1.83;;;;;;;;;;5039726;28;20592;-85
2021/03/19 14:58:12;;;;;;;2.35;1.38;;;;;;;;;;5039045;28;20233;-86
2021/03/19 15:00:43;;;;;;;2.08;1.45;;;;;;;;;;5038058;28;20344;-84
2021/03/19 15:03:12;;;;;;;3.50;1.75;;;;;;;;;;5038497;28;20261;-85
2021/03/19 15:05:39;;;;;;;1.60;1.50;;;;;;;;;;5037414;28;20650;-85
2021/03/19 15:08:08;;;;;;;2.35;1.50;;;;;;;;;;5036261;28;20222;-86
2021/03/19 15:10:39;;;;;;;3.40;1.75;;;;;;;;;;5036781;28;20206;-85
2021/03/19 15:13:07;;;;;;;1.75;1.65;;;;;;;;;;5037275;28;20249;-85
2021/03/19 15:15:34;;;;;;;2.88;2.17;;;;;;;;;;5036861;28;20329;-86
2021/03/19 15:18:02;;;;;;;2.08;1.88;;;;;;;;;;5038214;28;20234;-86